Time;durP1;ratioP1;P1;durP2;ratioP2;P2;SDS_P1;SDS_P2;PMS_P1;PMS_P2;Temp;Humidity;BMP_temperature;BMP_pressure;BME280_temperature;BME280_humidity;BME280_pressure;Samples;Min_cycle;Max_cycle;Signal;HPM_P1;HPM_P2
2022/08/03 00:01:40;;;;;;;;;18.00;17.00;;;;;;;;110262;1264;17711;-57
2022/08/03 00:04:07;;;;;;;;;18.00;17.33;;;;;;;;110286;1264;17278;-54
2022/08/03 00:06:34;;;;;;;;;20.00;18.00;;;;;;;;110273;1264;19955;-54
2022/08/03 00:09:02;;;;;;;;;20.67;20.00;;;;;;;;110333;1264;19123;-55
2022/08/03 00:11:29;;;;;;;;;18.33;17.33;;;;;;;;110269;1265;17985;-54
2022/08/03 00:13:57;;;;;;;;;20.00;18.00;;;;;;;;110374;1264;18742;-55
2022/08/03 00:16:25;;;;;;;;;18.67;18.67;;;;;;;;110240;1264;17638;-55
2022/08/03 00:18:52;;;;;;;;;17.67;17.00;;;;;;;;110301;1264;21859;-55
2022/08/03 00:21:20;;;;;;;;;20.00;18.00;;;;;;;;110279;1264;17768;-55
2022/08/03 00:23:47;;;;;;;;;22.00;18.67;;;;;;;;110305;1264;18072;-54
2022/08/03 00:26:15;;;;;;;;;20.00;18.00;;;;;;;;110335;1264;17474;-53
2022/08/03 00:28:42;;;;;;;;;20.00;18.00;;;;;;;;110289;1264;17532;-55
2022/08/03 00:31:09;;;;;;;;;17.00;17.00;;;;;;;;110225;1265;17713;-56
2022/08/03 00:33:37;;;;;;;;;21.00;18.67;;;;;;;;110291;1264;17396;-54
2022/08/03 00:36:04;;;;;;;;;23.00;21.00;;;;;;;;110215;1264;19417;-55
2022/08/03 00:38:32;;;;;;;;;20.00;20.00;;;;;;;;110300;1264;17972;-56
2022/08/03 00:40:59;;;;;;;;;24.00;20.33;;;;;;;;110300;1264;19593;-53
2022/08/03 00:43:26;;;;;;;;;18.67;18.67;;;;;;;;110268;1264;17611;-54
2022/08/03 00:45:55;;;;;;;;;19.67;18.33;;;;;;;;110296;1264;19952;-52
2022/08/03 00:48:24;;;;;;;;;18.67;17.67;;;;;;;;110325;1264;20159;-57
2022/08/03 00:50:51;;;;;;;;;20.67;20.00;;;;;;;;110201;1264;19558;-58
2022/08/03 00:53:19;;;;;;;;;20.67;17.67;;;;;;;;110277;1264;20233;-53
2022/08/03 00:55:46;;;;;;;;;18.00;16.00;;;;;;;;110324;1264;17394;-53
2022/08/03 00:58:13;;;;;;;;;23.00;21.00;;;;;;;;110150;1264;20018;-55
2022/08/03 01:00:41;;;;;;;;;21.00;20.00;;;;;;;;110202;1264;17907;-53
2022/08/03 01:03:08;;;;;;;;;20.00;20.00;;;;;;;;110111;1264;20580;-54
2022/08/03 01:05:35;;;;;;;;;20.00;20.00;;;;;;;;110170;1264;20080;-52
2022/08/03 01:08:03;;;;;;;;;22.50;20.00;;;;;;;;110258;1264;17671;-53
2022/08/03 01:10:30;;;;;;;;;19.00;17.00;;;;;;;;110266;1264;19128;-52
2022/08/03 01:12:58;;;;;;;;;21.00;20.00;;;;;;;;110273;1264;19688;-53
2022/08/03 01:15:25;;;;;;;;;21.33;20.00;;;;;;;;110266;1265;17689;-51
2022/08/03 01:17:53;;;;;;;;;25.67;24.00;;;;;;;;110274;1264;19024;-57
2022/08/03 01:20:20;;;;;;;;;22.67;21.00;;;;;;;;110274;1264;18690;-56
2022/08/03 01:22:48;;;;;;;;;23.33;23.33;;;;;;;;110285;1264;17716;-53
2022/08/03 01:25:16;;;;;;;;;25.00;23.00;;;;;;;;110300;1264;17712;-55
2022/08/03 01:27:43;;;;;;;;;25.00;23.33;;;;;;;;110284;1265;17854;-54
2022/08/03 01:30:11;;;;;;;;;23.00;20.00;;;;;;;;110276;1264;17783;-53
2022/08/03 01:32:38;;;;;;;;;23.00;22.33;;;;;;;;110295;1265;17869;-54
2022/08/03 01:35:06;;;;;;;;;25.00;20.00;;;;;;;;110355;1264;17477;-53
2022/08/03 01:37:33;;;;;;;;;22.00;21.00;;;;;;;;110288;1264;21997;-54
2022/08/03 01:40:00;;;;;;;;;19.67;19.00;;;;;;;;110293;1265;17477;-54
2022/08/03 01:42:28;;;;;;;;;20.00;20.00;;;;;;;;110297;1265;17403;-53
2022/08/03 01:44:56;;;;;;;;;24.00;22.00;;;;;;;;110290;1264;22100;-55
2022/08/03 01:47:23;;;;;;;;;24.50;22.50;;;;;;;;110302;1265;21385;-57
2022/08/03 01:49:51;;;;;;;;;21.50;21.00;;;;;;;;110309;1264;17781;-54
2022/08/03 01:52:18;;;;;;;;;20.00;19.33;;;;;;;;110301;1264;17739;-55
2022/08/03 01:54:46;;;;;;;;;22.00;20.00;;;;;;;;110193;1264;17417;-54
2022/08/03 01:57:13;;;;;;;;;26.00;23.00;;;;;;;;110297;1264;17518;-55
2022/08/03 01:59:40;;;;;;;;;26.67;24.67;;;;;;;;110195;1265;20702;-55
2022/08/03 02:02:08;;;;;;;;;21.33;20.33;;;;;;;;110317;1264;17533;-51
2022/08/03 02:04:35;;;;;;;;;21.00;19.00;;;;;;;;110291;1264;19347;-52
2022/08/03 02:07:02;;;;;;;;;23.33;21.33;;;;;;;;110288;1264;17533;-54
2022/08/03 02:09:29;;;;;;;;;28.00;23.00;;;;;;;;110211;1264;17447;-52
2022/08/03 02:11:57;;;;;;;;;26.50;23.00;;;;;;;;110203;1264;20988;-52
2022/08/03 02:14:24;;;;;;;;;20.67;19.00;;;;;;;;110280;1264;18128;-52
2022/08/03 02:16:51;;;;;;;;;22.00;20.00;;;;;;;;110299;1264;19711;-51
2022/08/03 02:19:19;;;;;;;;;23.67;19.67;;;;;;;;110278;1264;18094;-54
2022/08/03 02:21:46;;;;;;;;;22.67;20.67;;;;;;;;110261;1264;22710;-56
2022/08/03 02:24:13;;;;;;;;;22.67;20.00;;;;;;;;110226;1265;17568;-54
2022/08/03 02:26:41;;;;;;;;;25.67;22.00;;;;;;;;110274;1265;17711;-55
2022/08/03 02:29:08;;;;;;;;;26.50;22.50;;;;;;;;110348;1264;18228;-53
2022/08/03 02:31:36;;;;;;;;;20.67;19.67;;;;;;;;110259;1265;22080;-54
2022/08/03 02:34:03;;;;;;;;;26.00;20.50;;;;;;;;110292;1264;19492;-53
2022/08/03 02:36:31;;;;;;;;;22.00;19.50;;;;;;;;110282;1264;18965;-51
2022/08/03 02:38:58;;;;;;;;;22.33;20.00;;;;;;;;110244;1265;19034;-57
2022/08/03 02:41:26;;;;;;;;;20.00;19.50;;;;;;;;110245;1264;22117;-54
2022/08/03 02:43:53;;;;;;;;;22.00;20.50;;;;;;;;110308;1264;17761;-55
2022/08/03 02:46:20;;;;;;;;;25.50;22.50;;;;;;;;110314;1264;17563;-53
2022/08/03 02:48:48;;;;;;;;;22.33;22.33;;;;;;;;110253;1264;17567;-53
2022/08/03 02:51:15;;;;;;;;;29.00;23.00;;;;;;;;110284;1264;19223;-54
2022/08/03 02:53:43;;;;;;;;;22.33;20.33;;;;;;;;110268;1264;17535;-54
2022/08/03 02:56:10;;;;;;;;;22.00;19.67;;;;;;;;110318;1265;19365;-53
2022/08/03 02:58:37;;;;;;;;;22.50;20.00;;;;;;;;110302;1265;21900;-49
2022/08/03 03:01:05;;;;;;;;;21.00;19.00;;;;;;;;110270;1264;17538;-56
2022/08/03 03:03:32;;;;;;;;;22.33;20.00;;;;;;;;110281;1264;17964;-52
2022/08/03 03:06:00;;;;;;;;;20.00;20.00;;;;;;;;110271;1264;19964;-54
2022/08/03 03:08:27;;;;;;;;;22.67;21.67;;;;;;;;110291;1264;17569;-53
2022/08/03 03:10:55;;;;;;;;;21.33;20.33;;;;;;;;110298;1265;17548;-57
2022/08/03 03:13:22;;;;;;;;;20.50;19.00;;;;;;;;110297;1265;17723;-53
2022/08/03 03:15:50;;;;;;;;;22.67;20.00;;;;;;;;110289;1264;21369;-54
2022/08/03 03:18:17;;;;;;;;;23.00;22.00;;;;;;;;110284;1262;19351;-56
2022/08/03 03:20:44;;;;;;;;;21.33;19.00;;;;;;;;110282;1265;17637;-49
2022/08/03 03:23:12;;;;;;;;;23.00;23.00;;;;;;;;110296;1264;17391;-51
2022/08/03 03:25:39;;;;;;;;;21.00;19.00;;;;;;;;110245;1264;24005;-51
2022/08/03 03:28:06;;;;;;;;;24.67;22.67;;;;;;;;110262;1265;17911;-48
2022/08/03 03:30:34;;;;;;;;;25.67;22.00;;;;;;;;110251;1264;24411;-49
2022/08/03 03:33:01;;;;;;;;;22.33;21.67;;;;;;;;110293;1264;19386;-52
2022/08/03 03:35:29;;;;;;;;;22.00;21.00;;;;;;;;110292;1265;17706;-52
2022/08/03 03:37:56;;;;;;;;;23.00;22.00;;;;;;;;110315;1264;17477;-53
2022/08/03 03:40:23;;;;;;;;;25.67;22.33;;;;;;;;110292;1264;19151;-53
2022/08/03 03:42:51;;;;;;;;;22.67;21.67;;;;;;;;110245;1264;17780;-54
2022/08/03 03:45:18;;;;;;;;;22.00;21.00;;;;;;;;110263;1264;17424;-53
2022/08/03 03:47:45;;;;;;;;;22.00;21.67;;;;;;;;110307;1265;20348;-55
2022/08/03 03:50:13;;;;;;;;;24.00;21.50;;;;;;;;110349;1264;21843;-53
2022/08/03 03:52:40;;;;;;;;;23.00;22.00;;;;;;;;110265;1264;22832;-52
2022/08/03 03:55:08;;;;;;;;;22.67;21.00;;;;;;;;110308;1264;17797;-54
2022/08/03 03:57:35;;;;;;;;;24.67;21.67;;;;;;;;110262;1264;19359;-53
2022/08/03 04:00:03;;;;;;;;;23.00;23.00;;;;;;;;110276;1264;19380;-53
2022/08/03 04:02:30;;;;;;;;;25.67;25.00;;;;;;;;110291;1264;20126;-53
2022/08/03 04:13:12;;;;;;;;;21.33;20.33;;;;;;;;110244;1265;20042;-56
2022/08/03 04:15:40;;;;;;;;;22.00;21.00;;;;;;;;110326;1264;17663;-53
2022/08/03 04:18:07;;;;;;;;;20.00;20.00;;;;;;;;110275;1265;17819;-53
2022/08/03 04:20:34;;;;;;;;;26.00;23.00;;;;;;;;110293;1264;21710;-54
2022/08/03 04:23:01;;;;;;;;;23.33;22.00;;;;;;;;110330;1264;17468;-56
2022/08/03 04:25:29;;;;;;;;;22.50;22.00;;;;;;;;110158;1265;18570;-55
2022/08/03 04:27:58;;;;;;;;;23.67;23.00;;;;;;;;110243;1264;20436;-54
2022/08/03 04:30:25;;;;;;;;;23.33;22.00;;;;;;;;110248;1265;23474;-54
2022/08/03 04:32:52;;;;;;;;;22.33;21.67;;;;;;;;110276;1264;17446;-52
2022/08/03 04:35:20;;;;;;;;;25.33;22.67;;;;;;;;110257;1264;17742;-53
2022/08/03 04:37:47;;;;;;;;;27.33;25.00;;;;;;;;110271;1264;17415;-55
2022/08/03 04:40:15;;;;;;;;;24.67;22.67;;;;;;;;110300;1264;19449;-54
2022/08/03 04:42:42;;;;;;;;;28.00;23.00;;;;;;;;110124;1265;21870;-53
2022/08/03 04:45:10;;;;;;;;;28.50;25.00;;;;;;;;110323;1264;20072;-53
2022/08/03 04:47:37;;;;;;;;;22.50;22.00;;;;;;;;110294;1264;17640;-53
2022/08/03 04:50:05;;;;;;;;;22.00;21.00;;;;;;;;110333;1264;19244;-53
2022/08/03 04:52:32;;;;;;;;;25.67;22.00;;;;;;;;110281;1264;17548;-56
2022/08/03 04:54:59;;;;;;;;;24.00;22.00;;;;;;;;110294;1264;19376;-53
2022/08/03 04:57:27;;;;;;;;;25.00;22.00;;;;;;;;110336;1264;18083;-55
2022/08/03 04:59:55;;;;;;;;;28.67;24.00;;;;;;;;110309;1264;19810;-53
2022/08/03 05:02:22;;;;;;;;;25.00;24.67;;;;;;;;110328;1265;20330;-55
2022/08/03 05:04:50;;;;;;;;;25.00;23.00;;;;;;;;110325;1264;17711;-54
2022/08/03 05:07:17;;;;;;;;;27.67;25.67;;;;;;;;110288;1264;19048;-56
2022/08/03 05:09:44;;;;;;;;;25.33;21.67;;;;;;;;110313;1264;19682;-53
2022/08/03 05:12:12;;;;;;;;;27.67;24.00;;;;;;;;110266;1265;18105;-54
2022/08/03 05:14:39;;;;;;;;;26.00;24.33;;;;;;;;110255;1265;19223;-51
2022/08/03 05:17:06;;;;;;;;;26.00;24.00;;;;;;;;110249;1265;17814;-55
2022/08/03 05:19:33;;;;;;;;;25.00;23.00;;;;;;;;110167;1264;22602;-57
2022/08/03 05:22:02;;;;;;;;;26.50;23.00;;;;;;;;110291;1264;19315;-52
2022/08/03 05:24:29;;;;;;;;;28.00;23.00;;;;;;;;110280;1264;21479;-55
2022/08/03 05:26:56;;;;;;;;;22.00;20.00;;;;;;;;110274;1264;17775;-54
2022/08/03 05:29:24;;;;;;;;;22.00;22.00;;;;;;;;110335;1264;17788;-52
2022/08/03 05:31:51;;;;;;;;;25.00;22.50;;;;;;;;110335;1264;17633;-54
2022/08/03 05:34:19;;;;;;;;;26.33;23.00;;;;;;;;110301;1265;20266;-54
2022/08/03 05:36:46;;;;;;;;;22.67;22.33;;;;;;;;110231;1264;17435;-54
2022/08/03 05:39:13;;;;;;;;;25.00;22.00;;;;;;;;110236;1264;19113;-51
2022/08/03 05:41:41;;;;;;;;;25.00;21.00;;;;;;;;110195;1264;19433;-54
2022/08/03 05:44:08;;;;;;;;;22.33;21.33;;;;;;;;110170;1264;18037;-54
2022/08/03 05:46:36;;;;;;;;;26.00;25.00;;;;;;;;110218;1264;17478;-53
2022/08/03 05:49:03;;;;;;;;;20.33;20.00;;;;;;;;110272;1264;17975;-56
2022/08/03 05:51:31;;;;;;;;;22.33;22.00;;;;;;;;110294;1265;19556;-51
2022/08/03 05:53:58;;;;;;;;;24.00;21.50;;;;;;;;110302;1264;21524;-52
2022/08/03 05:56:25;;;;;;;;;23.00;22.00;;;;;;;;110336;1264;17904;-53
2022/08/03 05:58:53;;;;;;;;;26.33;24.67;;;;;;;;110358;1264;17538;-52
2022/08/03 06:01:21;;;;;;;;;22.33;21.00;;;;;;;;110284;1264;19349;-54
2022/08/03 06:03:49;;;;;;;;;20.33;19.00;;;;;;;;110303;1264;18001;-55
2022/08/03 06:06:17;;;;;;;;;22.00;20.33;;;;;;;;110235;1264;17424;-58
2022/08/03 06:08:44;;;;;;;;;27.00;23.00;;;;;;;;110256;1264;19373;-54
2022/08/03 06:11:12;;;;;;;;;22.00;20.00;;;;;;;;110279;1264;17959;-57
2022/08/03 06:13:39;;;;;;;;;23.00;22.00;;;;;;;;110267;1264;17371;-57
2022/08/03 06:16:06;;;;;;;;;20.00;19.00;;;;;;;;110238;1264;17528;-53
2022/08/03 06:18:34;;;;;;;;;22.00;21.00;;;;;;;;110274;1264;21614;-52
2022/08/03 06:21:01;;;;;;;;;22.33;21.67;;;;;;;;110223;1264;17647;-56
2022/08/03 06:23:29;;;;;;;;;25.00;23.33;;;;;;;;110216;1264;22917;-56
2022/08/03 06:25:56;;;;;;;;;19.67;19.67;;;;;;;;110301;1265;19260;-57
2022/08/03 06:28:23;;;;;;;;;22.67;20.00;;;;;;;;110260;1264;19469;-54
2022/08/03 06:30:51;;;;;;;;;25.00;21.50;;;;;;;;110257;1264;17722;-54
2022/08/03 06:33:18;;;;;;;;;19.00;19.00;;;;;;;;110265;1265;19806;-54
2022/08/03 06:35:45;;;;;;;;;21.00;19.33;;;;;;;;110277;1265;17628;-57
2022/08/03 06:38:13;;;;;;;;;23.33;20.67;;;;;;;;110332;1264;20319;-55
2022/08/03 06:40:40;;;;;;;;;20.00;18.67;;;;;;;;110170;1264;18478;-54
2022/08/03 06:43:08;;;;;;;;;20.33;18.00;;;;;;;;110198;1264;17448;-51
2022/08/03 06:45:35;;;;;;;;;20.00;20.00;;;;;;;;110262;1264;17564;-53
2022/08/03 06:48:03;;;;;;;;;21.50;19.00;;;;;;;;110285;1264;17679;-52
2022/08/03 06:50:30;;;;;;;;;21.00;20.67;;;;;;;;110291;1264;17506;-55
2022/08/03 06:52:58;;;;;;;;;20.67;18.00;;;;;;;;110325;1265;19495;-53
2022/08/03 06:55:25;;;;;;;;;19.33;18.00;;;;;;;;110281;1264;17690;-54
2022/08/03 06:57:52;;;;;;;;;23.00;22.00;;;;;;;;110277;1264;17577;-55
2022/08/03 07:00:20;;;;;;;;;19.00;18.00;;;;;;;;110256;1264;19586;-54
2022/08/03 07:02:47;;;;;;;;;19.33;19.00;;;;;;;;110276;1265;20569;-53
2022/08/03 07:05:15;;;;;;;;;18.00;18.00;;;;;;;;110354;1264;17467;-54
2022/08/03 07:07:43;;;;;;;;;19.00;19.00;;;;;;;;110318;1264;17817;-53
2022/08/03 07:10:11;;;;;;;;;17.50;17.00;;;;;;;;110296;1265;17946;-55
2022/08/03 07:12:39;;;;;;;;;18.00;18.00;;;;;;;;110283;1264;19329;-56
2022/08/03 07:15:06;;;;;;;;;20.67;18.00;;;;;;;;110295;1264;17541;-53
2022/08/03 07:17:34;;;;;;;;;25.33;22.67;;;;;;;;110229;1264;17701;-55
2022/08/03 07:20:01;;;;;;;;;21.00;18.67;;;;;;;;110297;1263;17906;-53
2022/08/03 07:22:28;;;;;;;;;18.00;17.00;;;;;;;;110269;1264;20645;-54
2022/08/03 07:24:56;;;;;;;;;15.67;14.00;;;;;;;;110274;1264;17689;-53
2022/08/03 07:27:25;;;;;;;;;17.00;15.67;;;;;;;;110172;1264;17362;-52
2022/08/03 07:29:52;;;;;;;;;15.00;15.00;;;;;;;;110267;1264;18363;-55
2022/08/03 07:32:20;;;;;;;;;13.00;13.00;;;;;;;;110299;1264;19563;-54
2022/08/03 07:34:47;;;;;;;;;20.00;18.67;;;;;;;;110260;1264;17780;-53
2022/08/03 07:37:15;;;;;;;;;15.00;15.00;;;;;;;;110280;1264;19313;-57
2022/08/03 07:39:42;;;;;;;;;17.67;17.00;;;;;;;;110073;1264;17705;-54
2022/08/03 07:42:11;;;;;;;;;15.33;15.00;;;;;;;;110255;1264;17457;-53
2022/08/03 07:44:38;;;;;;;;;16.00;15.00;;;;;;;;110270;1264;17494;-52
2022/08/03 07:47:06;;;;;;;;;15.67;14.33;;;;;;;;110338;1264;17768;-52
2022/08/03 07:49:33;;;;;;;;;14.00;13.33;;;;;;;;110273;1264;17519;-54
2022/08/03 07:56:12;;;;;;;;;13.00;13.00;;;;;25.61;54.57;101168.55;107954;1295;13172;-58
2022/08/03 07:58:40;;;;;;;;;16.00;14.67;;;;;25.03;52.95;101171.50;108845;1278;14352;-59
2022/08/03 08:01:08;;;;;;;;;13.00;13.00;;;;;24.72;53.54;101171.63;108808;1275;13200;-60
2022/08/03 08:03:35;;;;;;;;;14.00;13.33;;;;;24.63;53.84;101172.71;108815;1275;16746;-59
2022/08/03 08:06:02;;;;;;;;;15.00;14.50;;;;;24.77;53.49;101173.01;108755;1278;16229;-59
2022/08/03 08:08:30;;;;;;;;;15.33;13.67;;;;;24.97;52.71;101171.75;108869;1277;13118;-59
2022/08/03 08:10:57;;;;;;;;;18.00;17.00;;;;;24.87;53.06;101174.08;108876;1274;423541;-57
2022/08/03 08:13:25;;;;;;;;;16.00;15.33;;;;;24.76;53.59;101173.73;110420;1265;14355;-56
2022/08/03 08:15:52;;;;;;;;;15.00;13.33;;;;;24.73;53.76;101172.83;110405;1265;15303;-57
2022/08/03 08:18:19;;;;;;;;;16.00;16.00;;;;;24.84;53.76;101171.56;110426;1266;15854;-59
2022/08/03 08:20:47;;;;;;;;;16.33;15.00;;;;;24.95;53.52;101172.44;110375;1265;14632;-61
2022/08/03 08:24:53;;;;;;;;;15.00;14.67;;;;;26.18;52.29;101167.83;107219;1300;19128;-57
2022/08/03 08:27:20;;;;;;;;;16.00;13.00;;;;;25.92;50.34;101171.80;108568;1276;18509;-58
2022/08/03 08:29:47;;;;;;;;;15.00;14.00;;;;;25.84;50.24;101170.48;108582;1276;18746;-57
2022/08/03 08:32:15;;;;;;;;;13.00;12.33;;;;;25.76;49.97;101172.58;108610;1277;19487;-60
2022/08/03 08:34:42;;;;;;;;;13.00;13.00;;;;;25.77;49.74;101170.05;108539;1277;18481;-56
2022/08/03 08:37:10;;;;;;;;;11.67;11.67;;;;;25.74;50.09;101166.05;108586;1275;18717;-58
2022/08/03 08:39:37;;;;;;;;;14.00;14.00;;;;;25.69;49.74;101169.11;108787;1273;227343;-58
2022/08/03 08:42:05;;;;;;;;;13.67;13.00;;;;;25.68;49.34;101171.05;108963;1273;18501;-59
2022/08/03 08:44:32;;;;;;;;;14.33;13.33;;;;;25.81;48.42;101172.56;109063;1274;19051;-58
2022/08/03 08:47:00;;;;;;;;;14.00;14.00;;;;;25.88;47.87;101170.08;108940;1273;18275;-57
2022/08/03 08:49:28;;;;;;;;;14.00;13.33;;;;;25.98;47.70;101169.77;108949;1273;18550;-58
2022/08/03 08:51:55;;;;;;;;;13.00;12.00;;;;;25.99;47.07;101170.41;108912;1271;18740;-59
2022/08/03 08:54:23;;;;;;;;;11.00;11.00;;;;;25.67;46.03;101168.21;110097;1267;18240;-59
2022/08/03 08:56:50;;;;;;;;;13.00;11.33;;;;;25.69;46.01;101168.98;110038;1267;18586;-57
2022/08/03 08:59:17;;;;;;;;;12.00;12.00;;;;;25.64;46.10;101166.28;110194;1266;21504;-58
2022/08/03 09:01:45;;;;;;;;;12.67;12.00;;;;;25.69;46.16;101167.42;110198;1267;18257;-58
2022/08/03 09:04:12;;;;;;;;;11.00;11.00;;;;;25.76;45.25;101169.07;109982;1266;18618;-55
2022/08/03 09:06:40;;;;;;;;;11.00;11.00;;;;;25.76;44.25;101162.89;109897;1266;20041;-57
2022/08/03 09:09:08;;;;;;;;;9.50;9.50;;;;;;;;109954;1267;19267;-56
2022/08/03 09:11:36;;;;;;;;;9.00;9.00;;;;;;;;110088;1266;20301;-58
2022/08/03 09:14:03;;;;;;;;;12.00;10.00;;;;;;;;110222;1267;17255;-56
2022/08/03 09:16:30;;;;;;;;;11.67;10.00;;;;;;;;110212;1265;19345;-59
2022/08/03 09:18:58;;;;;;;;;12.00;12.00;;;;;;;;110156;1267;17541;-56
2022/08/03 09:21:25;;;;;;;;;10.00;10.00;;;;;;;;110156;1267;17518;-58
2022/08/03 09:23:52;;;;;;;;;12.33;12.00;;;;;;;;110186;1267;17570;-59
2022/08/03 09:26:21;;;;;;;;;12.00;11.00;;;;;;;;110221;1266;17508;-59
2022/08/03 09:28:48;;;;;;;;;9.00;9.00;;;;;;;;110119;1267;17458;-57
2022/08/03 09:31:15;;;;;;;;;8.67;8.67;;;;;;;;110075;1267;19871;-60
2022/08/03 09:33:43;;;;;;;;;13.00;12.00;;;;;;;;110162;1267;19192;-58
2022/08/03 09:36:10;;;;;;;;;11.00;10.33;;;;;;;;110166;1267;20870;-57
2022/08/03 09:38:37;;;;;;;;;12.00;12.00;;;;;;;;110179;1266;19583;-58
2022/08/03 09:41:06;;;;;;;;;13.00;12.00;;;;;;;;110202;1268;19637;-57
2022/08/03 09:43:33;;;;;;;;;12.00;10.00;;;;;;;;110310;1264;17336;-59
2022/08/03 09:46:01;;;;;;;;;10.50;10.50;;;;;;;;110308;1265;17555;-55
2022/08/03 09:48:29;;;;;;;;;12.00;10.00;;;;;;;;110272;1264;17736;-61
2022/08/03 09:50:56;;;;;;;;;10.50;10.00;;;;;;;;110294;1264;19986;-57
2022/08/03 09:53:24;;;;;;;;;10.00;10.00;;;;;;;;110272;1264;17817;-56
2022/08/03 09:55:52;;;;;;;;;10.67;10.00;;;;;;;;110306;1262;17675;-58
2022/08/03 09:58:19;;;;;;;;;12.00;11.33;;;;;;;;110247;1264;19756;-58
2022/08/03 10:00:47;;;;;;;;;12.00;12.00;;;;;;;;110297;1263;17645;-60
2022/08/03 10:03:14;;;;;;;;;11.33;11.33;;;;;;;;110312;1263;19778;-58
2022/08/03 10:05:43;;;;;;;;;9.00;9.00;;;;;;;;110287;1264;21950;-57
2022/08/03 10:08:10;;;;;;;;;12.00;12.00;;;;;;;;110333;1265;17483;-60
2022/08/03 10:10:38;;;;;;;;;10.00;10.00;;;;;;;;110309;1263;17510;-59
2022/08/03 10:13:05;;;;;;;;;11.67;10.33;;;;;;;;110311;1264;18241;-58
2022/08/03 10:15:32;;;;;;;;;12.00;12.00;;;;;;;;110307;1264;19230;-59
2022/08/03 10:18:00;;;;;;;;;10.00;10.00;;;;;;;;110300;1264;19906;-57
2022/08/03 10:20:27;;;;;;;;;10.33;10.00;;;;;;;;110349;1264;17322;-59
2022/08/03 10:22:55;;;;;;;;;11.67;10.00;;;;;;;;110313;1265;17288;-59
2022/08/03 10:25:22;;;;;;;;;11.67;10.33;;;;;;;;110331;1264;17502;-58
2022/08/03 10:27:49;;;;;;;;;10.67;10.67;;;;;;;;110321;1264;20265;-55
2022/08/03 10:30:17;;;;;;;;;10.00;9.00;;;;;;;;110261;1264;19185;-56
2022/08/03 10:32:45;;;;;;;;;12.00;10.00;;;;;;;;110322;1263;17637;-58
2022/08/03 10:35:13;;;;;;;;;15.00;12.00;;;;;;;;110389;1262;17369;-57
2022/08/03 10:37:40;;;;;;;;;12.00;11.33;;;;;;;;110287;1264;19217;-59
2022/08/03 10:40:07;;;;;;;;;13.67;11.67;;;;;;;;110313;1264;20268;-60
2022/08/03 10:42:35;;;;;;;;;12.00;9.50;;;;;;;;110313;1264;17506;-58
2022/08/03 10:45:02;;;;;;;;;12.00;10.00;;;;;;;;110317;1264;19264;-56
2022/08/03 10:47:30;;;;;;;;;13.00;13.00;;;;;;;;110317;1265;17525;-55
2022/08/03 10:49:57;;;;;;;;;12.00;12.00;;;;;;;;110218;1264;21042;-58
2022/08/03 10:52:24;;;;;;;;;13.50;13.00;;;;;;;;110308;1264;19676;-59
2022/08/03 10:57:36;;;;;;;;;11.67;11.67;;;;;;;;109591;1269;17667;-58
2022/08/03 11:00:05;;;;;;;;;11.33;10.67;;;;;;;;109566;1270;18077;-58
2022/08/03 11:02:32;;;;;;;;;12.00;11.67;;;;;;;;109439;1268;20891;-58
2022/08/03 11:04:59;;;;;;;;;10.00;10.00;;;;;;;;109586;1268;17390;-59
2022/08/03 11:07:27;;;;;;;;;14.33;13.67;;;;;;;;109544;1268;20703;-58
2022/08/03 11:09:54;;;;;;;;;10.00;10.00;;;;;;;;109477;1270;17545;-61
2022/08/03 11:12:22;;;;;;;;;13.00;13.00;;;;;;;;109430;1270;17673;-57
2022/08/03 11:14:50;;;;;;;;;11.67;11.67;;;;;;;;109470;1269;17622;-57
2022/08/03 11:17:17;;;;;;;;;10.00;9.00;;;;;;;;109573;1268;20105;-59
2022/08/03 11:19:44;;;;;;;;;11.33;10.00;;;;;;;;109373;1270;20785;-57
2022/08/03 11:22:12;;;;;;;;;12.00;12.00;;;;;;;;109447;1269;20341;-55
2022/08/03 11:24:40;;;;;;;;;9.67;9.67;;;;;;;;109486;1269;19660;-58
2022/08/03 11:27:07;;;;;;;;;11.00;11.00;;;;;;;;109469;1270;20755;-55
2022/08/03 11:29:34;;;;;;;;;12.67;12.00;;;;;;;;109586;1268;17700;-56
2022/08/03 11:32:02;;;;;;;;;10.00;10.00;;;;;;;;109529;1270;17766;-57
2022/08/03 11:34:29;;;;;;;;;12.00;10.00;;;;;;;;109528;1268;17544;-59
2022/08/03 11:36:57;;;;;;;;;12.00;10.67;;;;;;;;110198;1264;17351;-59
2022/08/03 11:39:24;;;;;;;;;18.00;15.00;;;;;;;;110247;1264;17958;-55
2022/08/03 11:41:52;;;;;;;;;37.33;34.33;;;;;;;;110262;1263;17833;-60
2022/08/03 11:44:19;;;;;;;;;68.33;55.67;;;;;;;;110309;1264;18919;-59
2022/08/03 11:46:46;;;;;;;;;58.33;47.00;;;;;;;;110240;1265;17613;-56
2022/08/03 11:49:14;;;;;;;;;45.33;39.00;;;;;;;;110278;1265;17378;-58
2022/08/03 11:51:41;;;;;;;;;38.50;34.50;;;;;;;;110321;1264;19313;-59
2022/08/03 11:54:10;;;;;;;;;35.67;33.00;;;;;;;;110275;1262;17538;-58
2022/08/03 11:56:37;;;;;;;;;25.50;24.50;;;;;;;;110307;1264;20967;-59
2022/08/03 11:59:05;;;;;;;;;23.67;23.00;;;;;;;;110303;1264;17483;-58
2022/08/03 12:01:32;;;;;;;;;19.00;18.33;;;;;;;;110294;1265;19971;-56
2022/08/03 12:03:59;;;;;;;;;16.00;15.33;;;;;;;;110288;1264;20078;-57
2022/08/03 12:06:27;;;;;;;;;14.67;14.67;;;;;;;;110269;1264;17383;-60
2022/08/03 12:08:54;;;;;;;;;14.33;14.33;;;;;;;;110268;1265;19066;-59
2022/08/03 12:11:21;;;;;;;;;15.00;13.00;;;;;;;;110305;1264;17513;-57
2022/08/03 12:13:49;;;;;;;;;17.00;15.33;;;;;;;;110248;1264;17499;-58
2022/08/03 12:16:17;;;;;;;;;14.67;14.67;;;;;;;;110226;1264;17835;-58
2022/08/03 12:18:45;;;;;;;;;15.00;14.00;;;;;;;;110247;1264;18913;-56
2022/08/03 12:21:12;;;;;;;;;19.00;16.00;;;;;;;;110143;1264;19136;-57
2022/08/03 12:23:39;;;;;;;;;15.33;14.33;;;;;;;;110163;1264;19591;-58
2022/08/03 12:26:07;;;;;;;;;13.33;13.00;;;;;;;;110301;1265;17275;-59
2022/08/03 12:28:34;;;;;;;;;13.00;13.00;;;;;;;;110271;1264;17267;-57
2022/08/03 12:31:02;;;;;;;;;11.33;10.67;;;;;;;;110265;1264;18016;-58
2022/08/03 12:33:29;;;;;;;;;13.00;11.33;;;;;;;;110279;1262;17375;-59
2022/08/03 12:35:56;;;;;;;;;11.00;11.00;;;;;;;;110268;1264;19371;-58
2022/08/03 12:38:24;;;;;;;;;12.00;11.00;;;;;;;;110288;1264;17651;-57
2022/08/03 12:40:51;;;;;;;;;10.50;10.50;;;;;;;;110280;1264;33328;-58
2022/08/03 12:43:18;;;;;;;;;13.00;11.00;;;;;;;;110264;1264;19146;-59
2022/08/03 12:45:46;;;;;;;;;10.33;10.00;;;;;;;;110279;1265;19881;-58
2022/08/03 12:48:14;;;;;;;;;13.00;10.00;;;;;;;;110310;1264;19188;-58
2022/08/03 12:50:41;;;;;;;;;11.00;10.50;;;;;;;;110332;1265;19301;-56
2022/08/03 12:53:08;;;;;;;;;11.33;11.33;;;;;;;;110316;1265;18021;-59
2022/08/03 12:55:36;;;;;;;;;10.67;10.67;;;;;;;;110255;1264;20164;-56
2022/08/03 12:58:03;;;;;;;;;13.00;12.00;;;;;;;;110284;1265;19032;-59
2022/08/03 13:00:30;;;;;;;;;13.00;11.00;;;;;;;;110272;1264;19145;-58
2022/08/03 13:02:58;;;;;;;;;9.00;9.00;;;;;;;;110303;1264;17509;-58
2022/08/03 13:05:25;;;;;;;;;9.00;9.00;;;;;;;;110332;1265;17616;-59
2022/08/03 13:07:53;;;;;;;;;10.00;10.00;;;;;;;;110275;1265;17693;-59
2022/08/03 13:10:20;;;;;;;;;10.67;9.67;;;;;;;;110229;1265;18591;-58
2022/08/03 13:12:47;;;;;;;;;10.67;10.67;;;;;;;;110289;1262;20392;-57
2022/08/03 13:15:15;;;;;;;;;10.33;10.33;;;;;;;;110286;1264;18122;-59
2022/08/03 13:17:42;;;;;;;;;10.00;10.00;;;;;;;;110311;1264;19050;-57
2022/08/03 13:20:09;;;;;;;;;11.00;10.00;;;;;;;;110297;1264;17522;-58
2022/08/03 13:22:37;;;;;;;;;10.00;10.00;;;;;;;;110225;1263;17516;-58
2022/08/03 13:25:04;;;;;;;;;10.00;10.00;;;;;;;;110232;1265;17480;-57
2022/08/03 13:27:31;;;;;;;;;10.67;10.33;;;;;;;;110234;1264;21959;-56
2022/08/03 13:29:59;;;;;;;;;11.00;10.67;;;;;;;;110295;1264;20125;-59
2022/08/03 13:32:26;;;;;;;;;11.00;11.00;;;;;;;;110305;1264;17436;-57
2022/08/03 13:34:54;;;;;;;;;10.00;9.67;;;;;;;;110288;1264;18467;-58
2022/08/03 13:37:21;;;;;;;;;11.00;10.00;;;;;;;;110254;1264;17668;-59
2022/08/03 13:39:49;;;;;;;;;9.33;9.33;;;;;;;;110289;1264;18079;-60
2022/08/03 13:42:16;;;;;;;;;10.00;10.00;;;;;;;;110257;1264;21994;-57
2022/08/03 13:44:43;;;;;;;;;11.00;10.00;;;;;;;;110306;1264;19758;-58
2022/08/03 13:47:11;;;;;;;;;9.00;9.00;;;;;;;;110324;1265;17244;-57
2022/08/03 13:49:38;;;;;;;;;15.00;12.50;;;;;;;;110283;1264;18167;-58
2022/08/03 13:52:06;;;;;;;;;11.00;10.67;;;;;;;;110303;1264;18736;-59
2022/08/03 13:54:33;;;;;;;;;10.00;10.00;;;;;;;;110286;1264;17618;-58
2022/08/03 13:57:01;;;;;;;;;13.50;10.00;;;;;;;;110345;1263;19352;-58
2022/08/03 13:59:28;;;;;;;;;9.67;9.67;;;;;;;;110293;1264;17722;-59
2022/08/03 14:01:55;;;;;;;;;10.33;10.33;;;;;;;;110307;1264;19418;-59
2022/08/03 14:04:23;;;;;;;;;12.67;12.67;;;;;;;;110285;1265;19727;-58